createdAt,value
2019-04-05T00:02:22.242Z,97.60
2019-04-05T00:05:02.454Z,97.60
2019-04-05T00:07:42.988Z,97.50
2019-04-05T00:13:35.430Z,97.20
2019-04-05T00:16:15.893Z,97.40
2019-04-05T00:18:56.453Z,97.10
2019-04-05T00:21:36.325Z,97.20
2019-04-05T00:24:16.546Z,97.20
2019-04-05T00:26:56.806Z,97.10
2019-04-05T00:29:24.446Z,96.70
2019-04-05T00:32:11.486Z,96.50
2019-04-05T00:34:58.662Z,96.40
2019-04-05T00:37:38.435Z,96.80
2019-04-05T00:40:18.647Z,96.60
2019-04-05T00:42:58.519Z,96.90
2019-04-05T00:45:38.641Z,97.30
2019-04-05T00:48:19.082Z,97.10
2019-04-05T00:50:59.249Z,97.00
2019-04-05T00:53:39.290Z,97.10
2019-04-05T00:56:19.244Z,96.70
2019-04-05T00:58:59.274Z,96.60
2019-04-05T01:01:39.409Z,96.70
2019-04-05T01:04:19.798Z,96.50
2019-04-05T01:06:59.690Z,96.20
2019-04-05T01:09:39.771Z,95.90
2019-04-05T01:12:20.503Z,96.30
2019-04-05T01:15:00.306Z,96.50
2019-04-05T01:17:40.450Z,96.40
2019-04-05T01:20:21.018Z,96.20
2019-04-05T01:23:01.058Z,96.00
2019-04-05T01:25:41.356Z,95.00
2019-04-05T01:28:21.529Z,94.70
2019-04-05T01:31:01.698Z,95.10
2019-04-05T01:33:41.678Z,95.60
2019-04-05T01:36:21.828Z,96.20
2019-04-05T01:39:02.029Z,96.20
2019-04-05T01:41:42.334Z,96.50
2019-04-05T01:44:22.369Z,96.70
2019-04-05T01:47:02.561Z,96.40
2019-04-05T01:49:42.644Z,96.60
2019-04-05T01:52:22.789Z,96.60
2019-04-05T01:55:02.530Z,96.60
2019-04-05T01:57:42.655Z,96.60
2019-04-05T02:00:22.655Z,96.80
2019-04-05T02:03:02.997Z,96.70
2019-04-05T02:05:43.185Z,96.60
2019-04-05T02:08:23.462Z,97.00
2019-04-05T02:11:03.886Z,96.70
2019-04-05T02:13:43.782Z,97.00
2019-04-05T02:16:24.159Z,97.40
2019-04-05T02:19:04.116Z,97.30
2019-04-05T02:21:44.254Z,97.20
2019-04-05T02:24:24.320Z,97.00
2019-04-05T02:27:04.705Z,97.20
2019-04-05T02:29:44.906Z,97.00
2019-04-05T02:32:24.925Z,97.00
2019-04-05T02:35:05.120Z,96.60
2019-04-05T02:37:45.170Z,96.70
2019-04-05T02:40:25.459Z,96.50
2019-04-05T02:43:05.873Z,96.50
2019-04-05T02:45:46.192Z,96.70
2019-04-05T02:48:26.281Z,97.20
2019-04-05T02:51:15.092Z,96.90
2019-04-05T02:53:55.496Z,97.10
2019-04-05T02:56:35.565Z,97.00
2019-04-05T02:59:15.714Z,97.00
2019-04-05T03:01:55.994Z,97.20
2019-04-05T03:04:36.199Z,96.90
2019-04-05T03:07:16.898Z,96.40
2019-04-05T03:09:57.437Z,96.90
2019-04-05T03:12:37.825Z,96.70
2019-04-05T03:15:17.995Z,96.80
2019-04-05T03:17:58.079Z,96.90
2019-04-05T03:20:38.763Z,97.10
2019-04-05T03:23:18.535Z,97.10
2019-04-05T03:25:58.514Z,97.10
2019-04-05T03:28:38.792Z,97.10
2019-04-05T03:31:24.569Z,97.10
2019-04-05T03:34:01.183Z,97.00
2019-04-05T03:36:41.246Z,97.00
2019-04-05T03:39:21.527Z,97.00
2019-04-05T03:42:01.909Z,97.20
2019-04-05T03:44:42.213Z,97.40
2019-04-05T03:47:22.189Z,97.10
2019-04-05T03:50:02.334Z,97.40
2019-04-05T03:52:42.594Z,97.50
2019-04-05T03:55:22.691Z,97.30
2019-04-05T03:58:02.756Z,97.10
2019-04-05T04:00:42.911Z,97.00
2019-04-05T04:03:23.054Z,96.70
2019-04-05T04:06:02.942Z,96.40
2019-04-05T04:08:43.069Z,97.00
2019-04-05T04:11:23.173Z,96.80
2019-04-05T04:14:03.252Z,97.20
2019-04-05T04:16:43.315Z,96.70
2019-04-05T04:19:23.559Z,96.70
2019-04-05T04:22:03.697Z,96.60
2019-04-05T04:24:44.343Z,96.10
2019-04-05T04:27:24.278Z,96.40
2019-04-05T04:30:04.360Z,96.10
2019-04-05T04:32:44.300Z,96.00
2019-04-05T04:35:24.287Z,96.20
2019-04-05T04:38:04.476Z,96.70
2019-04-05T04:40:44.710Z,97.10
2019-04-05T04:43:24.722Z,97.60
2019-04-05T04:46:04.874Z,97.70
2019-04-05T04:48:45.158Z,97.70
2019-04-05T04:51:25.117Z,97.60
2019-04-05T04:54:05.238Z,96.70
2019-04-05T04:56:45.334Z,96.80
2019-04-05T04:59:25.495Z,97.00
2019-04-05T05:02:05.776Z,97.00
2019-04-05T05:04:45.963Z,97.10
2019-04-05T05:07:25.922Z,97.10
2019-04-05T05:10:05.861Z,97.20
2019-04-05T05:12:46.101Z,96.90
2019-04-05T05:15:27.392Z,96.20
2019-04-05T05:18:07.166Z,96.00
2019-04-05T05:20:47.415Z,96.10
2019-04-05T05:23:27.618Z,96.10
2019-04-05T05:26:07.881Z,96.30
2019-04-05T05:28:47.793Z,97.00
2019-04-05T05:31:28.149Z,96.70
2019-04-05T05:34:08.447Z,97.30
2019-04-05T05:40:01.094Z,96.90
2019-04-05T05:42:28.854Z,96.50
2019-04-05T05:45:16.073Z,96.70
2019-04-05T05:48:03.141Z,96.30
2019-04-05T05:50:43.501Z,96.20
2019-04-05T05:53:23.754Z,95.40
2019-04-05T05:56:04.001Z,94.60
2019-04-05T05:58:44.173Z,94.30
2019-04-05T06:01:24.573Z,94.60
2019-04-05T06:04:04.349Z,95.10
2019-04-05T06:06:44.504Z,94.20
2019-04-05T06:09:24.831Z,94.30
2019-04-05T06:12:04.929Z,94.50
2019-04-05T06:14:45.024Z,94.90
2019-04-05T06:17:25.318Z,95.30
2019-04-05T06:20:05.474Z,95.40
2019-04-05T06:22:47.564Z,95.30
2019-04-05T06:25:27.680Z,95.40
2019-04-05T06:28:08.293Z,95.80
2019-04-05T06:30:48.037Z,95.40
2019-04-05T06:35:39.595Z,94.60
2019-04-05T06:36:10.569Z,94.40
2019-04-05T06:38:50.757Z,94.30
2019-04-05T06:41:30.966Z,94.00
2019-04-05T06:44:11.091Z,94.30
2019-04-05T06:46:51.909Z,94.90
2019-04-05T06:49:32.085Z,95.00
2019-04-05T06:52:11.909Z,94.90
2019-04-05T06:54:52.002Z,95.20
2019-04-05T06:57:32.196Z,94.90
2019-04-05T07:00:12.261Z,95.00
2019-04-05T07:02:52.333Z,93.50
2019-04-05T07:05:32.241Z,93.90
2019-04-05T07:08:12.323Z,94.40
2019-04-05T07:10:51.976Z,94.20
2019-04-05T07:13:32.072Z,94.70
2019-04-05T07:16:12.307Z,94.00
2019-04-05T07:18:52.863Z,94.00
2019-04-05T07:21:33.902Z,93.60
2019-04-05T07:24:05.305Z,93.70
2019-04-05T07:26:53.161Z,93.80
2019-04-05T07:29:32.916Z,91.80
2019-04-05T07:32:12.769Z,92.20
2019-04-05T07:34:52.990Z,92.50
2019-04-05T07:37:20.899Z,94.50
2019-04-05T07:40:08.026Z,92.10
2019-04-05T07:42:55.186Z,90.20
2019-04-05T07:45:33.337Z,89.60
2019-04-05T07:48:20.593Z,85.30
2019-04-05T07:51:01.186Z,83.70
2019-04-05T07:53:41.197Z,82.20
2019-04-05T07:56:21.525Z,78.60
2019-04-05T07:59:02.466Z,79.20
2019-04-05T08:01:42.613Z,80.30
2019-04-05T08:04:22.678Z,81.60
2019-04-05T08:07:02.727Z,81.00
2019-04-05T08:09:42.933Z,79.70
2019-04-05T08:12:22.882Z,80.10
2019-04-05T08:18:04.265Z,77.80
2019-04-05T08:20:44.610Z,79.80
2019-04-05T08:23:24.930Z,79.90
2019-04-05T08:26:05.005Z,79.50
2019-04-05T08:28:45.134Z,79.30
2019-04-05T08:31:25.402Z,81.00
2019-04-05T08:34:05.353Z,80.60
2019-04-05T08:36:45.418Z,80.00
2019-04-05T08:39:25.502Z,78.40
2019-04-05T08:42:05.501Z,77.40
2019-04-05T08:44:45.718Z,78.40
2019-04-05T08:47:25.782Z,78.00
2019-04-05T08:50:05.903Z,75.90
2019-04-05T08:52:46.001Z,74.60
2019-04-05T08:55:26.109Z,74.60
2019-04-05T08:57:53.985Z,73.80
2019-04-05T09:00:41.036Z,74.40
2019-04-05T09:03:28.087Z,72.20
2019-04-05T09:06:08.553Z,68.40
2019-04-05T09:08:48.741Z,69.20
2019-04-05T09:11:28.964Z,67.70
2019-04-05T09:14:09.208Z,67.90
2019-04-05T09:16:49.352Z,66.80
2019-04-05T09:19:29.470Z,67.70
2019-04-05T09:22:09.763Z,71.20
2019-04-05T09:27:36.412Z,73.00
2019-04-05T09:30:23.451Z,74.90
2019-04-05T09:33:10.453Z,75.90
2019-04-05T09:35:50.318Z,76.90
2019-04-05T09:38:30.525Z,76.80
2019-04-05T09:41:10.634Z,73.60
2019-04-05T09:43:50.593Z,71.70
2019-04-05T09:46:30.997Z,69.50
2019-04-05T09:48:58.656Z,67.40
2019-04-05T09:54:38.633Z,66.50
2019-04-05T09:57:18.213Z,66.60
2019-04-05T09:59:58.522Z,65.40
2019-04-05T10:02:38.531Z,65.20
2019-04-05T10:05:19.094Z,63.30
2019-04-05T10:07:59.076Z,62.70
2019-04-05T10:10:39.927Z,63.50
2019-04-05T10:13:20.276Z,63.70
2019-04-05T10:16:00.501Z,64.50
2019-04-05T10:18:28.151Z,64.50
2019-04-05T10:21:15.491Z,62.30
2019-04-05T10:24:02.657Z,60.10
2019-04-05T10:26:42.896Z,58.20
2019-04-05T10:29:23.145Z,59.50
2019-04-05T10:32:03.719Z,61.10
2019-04-05T10:34:43.552Z,61.80
2019-04-05T10:37:23.828Z,61.90
2019-04-05T10:40:04.225Z,61.60
2019-04-05T10:42:44.205Z,60.50
2019-04-05T10:45:24.333Z,62.00
2019-04-05T10:48:04.790Z,62.10
2019-04-05T10:50:45.699Z,62.00
2019-04-05T10:53:26.138Z,60.30
2019-04-05T10:56:06.243Z,61.30
2019-04-05T10:58:46.262Z,62.40
2019-04-05T11:01:26.450Z,60.50
2019-04-05T11:04:06.313Z,57.80
2019-04-05T11:06:46.489Z,57.40
2019-04-05T11:09:26.754Z,59.00
2019-04-05T11:12:08.666Z,57.10
2019-04-05T11:14:49.059Z,54.90
2019-04-05T11:17:29.027Z,55.90
2019-04-05T11:20:20.718Z,56.70
2019-04-05T11:22:51.487Z,56.90
2019-04-05T11:25:31.611Z,55.20
2019-04-05T11:28:11.544Z,56.20
2019-04-05T11:30:51.987Z,55.40
2019-04-05T11:33:32.147Z,56.40
2019-04-05T11:36:13.843Z,59.10
2019-04-05T11:38:52.466Z,60.00
2019-04-05T11:41:32.994Z,58.70
2019-04-05T11:44:13.010Z,57.70
2019-04-05T11:46:53.198Z,59.50
2019-04-05T11:49:33.318Z,58.20
2019-04-05T11:52:13.660Z,57.60
2019-04-05T11:54:53.647Z,58.30
2019-04-05T11:57:34.213Z,55.50
2019-04-05T12:00:19.022Z,53.40
2019-04-05T12:03:02.890Z,51.60
2019-04-05T12:05:42.603Z,50.50
2019-04-05T12:08:22.898Z,50.60
2019-04-05T12:11:02.898Z,54.30
2019-04-05T12:13:42.978Z,51.70
2019-04-05T12:16:23.489Z,50.90
2019-04-05T12:19:04.757Z,52.00
2019-04-05T12:21:45.602Z,51.00
2019-04-05T12:24:25.897Z,44.70
2019-04-05T12:27:05.797Z,47.50
2019-04-05T12:29:45.947Z,38.50
2019-04-05T12:32:34.497Z,38.00
2019-04-05T12:34:58.689Z,36.40
2019-04-05T12:37:50.481Z,36.60
2019-04-05T12:40:34.550Z,39.00
2019-04-05T12:43:14.585Z,35.00
2019-04-05T12:45:54.605Z,35.30
2019-04-05T12:48:34.564Z,33.40
2019-04-05T12:51:15.590Z,33.70
2019-04-05T12:53:56.749Z,33.70
2019-04-05T12:56:37.274Z,34.20
2019-04-05T12:59:06.770Z,34.60
2019-04-05T13:01:53.876Z,32.80
2019-04-05T13:04:40.886Z,35.60
2019-04-05T13:07:22.803Z,34.00
2019-04-05T13:10:03.063Z,31.80
2019-04-05T13:12:43.077Z,32.40
2019-04-05T13:15:23.108Z,32.60
2019-04-05T13:18:03.130Z,30.90
2019-04-05T13:20:43.770Z,31.50
2019-04-05T13:23:23.382Z,33.80
2019-04-05T13:26:03.643Z,32.80
2019-04-05T13:28:43.750Z,33.50
2019-04-05T13:31:23.887Z,32.50
2019-04-05T13:34:05.974Z,33.00
2019-04-05T13:36:46.350Z,33.40
2019-04-05T13:39:27.530Z,34.50
2019-04-05T13:42:08.512Z,36.10
2019-04-05T13:44:48.781Z,37.80
2019-04-05T13:47:29.207Z,39.00
2019-04-05T13:50:11.395Z,39.20
2019-04-05T13:52:49.333Z,41.60
2019-04-05T13:55:36.389Z,43.40
2019-04-05T13:58:16.453Z,45.30
2019-04-05T14:00:57.032Z,46.20
2019-04-05T14:03:37.209Z,48.50
2019-04-05T14:06:17.293Z,47.20
2019-04-05T14:08:57.476Z,48.60
2019-04-05T14:11:26.045Z,49.10
2019-04-05T14:14:14.126Z,47.70
2019-04-05T14:16:54.248Z,46.60
2019-04-05T14:19:34.141Z,47.30
2019-04-05T14:22:14.326Z,46.70
2019-04-05T14:24:56.627Z,46.60
2019-04-05T14:27:24.745Z,45.90
2019-04-05T14:30:13.613Z,46.80
2019-04-05T14:33:00.805Z,46.60
2019-04-05T14:35:41.789Z,47.40
2019-04-05T14:38:23.153Z,47.40
2019-04-05T14:41:03.312Z,49.00
2019-04-05T14:43:45.034Z,48.40
2019-04-05T14:46:28.102Z,48.80
2019-04-05T14:49:07.723Z,49.60
2019-04-05T14:51:54.905Z,49.00
2019-04-05T14:54:30.435Z,49.30
2019-04-05T14:57:10.961Z,51.20
2019-04-05T14:59:51.229Z,50.80
2019-04-05T15:02:31.353Z,51.30
2019-04-05T15:05:12.020Z,52.10
2019-04-05T15:07:54.886Z,52.60
2019-04-05T15:10:34.974Z,52.90
2019-04-05T15:13:15.086Z,52.90
2019-04-05T15:15:55.972Z,53.40
2019-04-05T15:18:38.113Z,53.20
2019-04-05T15:21:18.376Z,54.40
2019-04-05T15:23:58.633Z,54.70
2019-04-05T15:26:38.679Z,53.40
2019-04-05T15:29:06.487Z,54.00
2019-04-05T15:31:55.527Z,55.20
2019-04-05T15:34:42.402Z,56.00
2019-04-05T15:37:24.450Z,55.10
2019-04-05T15:40:04.301Z,56.10
2019-04-05T15:42:44.277Z,55.70
2019-04-05T15:45:24.543Z,56.20
2019-04-05T15:48:04.646Z,55.90
2019-04-05T15:50:44.754Z,55.80
2019-04-05T15:53:25.990Z,55.90
2019-04-05T15:56:06.168Z,56.00
2019-04-05T15:58:47.445Z,56.10
2019-04-05T16:01:27.661Z,56.30
2019-04-05T16:04:07.252Z,56.50
2019-04-05T16:06:47.586Z,56.00
2019-04-05T16:09:28.010Z,56.60
2019-04-05T16:12:08.210Z,56.70
2019-04-05T16:14:48.087Z,56.80
2019-04-05T16:17:28.187Z,57.00
2019-04-05T16:20:08.384Z,56.30
2019-04-05T16:22:48.394Z,56.70
2019-04-05T16:25:28.710Z,55.70
2019-04-05T16:28:08.913Z,56.10
2019-04-05T16:30:49.323Z,56.40
2019-04-05T16:33:29.473Z,56.50
2019-04-05T16:36:09.426Z,56.80
2019-04-05T16:38:49.578Z,56.90
2019-04-05T16:41:29.993Z,57.30
2019-04-05T16:44:10.247Z,56.90
2019-04-05T16:46:50.512Z,57.50
2019-04-05T16:49:30.806Z,57.00
2019-04-05T16:52:11.138Z,57.40
2019-04-05T16:54:51.339Z,57.20
2019-04-05T16:57:31.445Z,57.40
2019-04-05T17:00:12.041Z,58.80
2019-04-05T17:02:51.893Z,59.90
2019-04-05T17:05:31.942Z,60.10
2019-04-05T17:08:12.005Z,60.40
2019-04-05T17:10:52.145Z,61.30
2019-04-05T17:13:32.234Z,61.60
2019-04-05T17:16:12.449Z,61.50
2019-04-05T17:18:52.467Z,61.70
2019-04-05T17:21:33.781Z,62.40
2019-04-05T17:24:14.210Z,63.20
2019-04-05T17:26:54.319Z,63.40
2019-04-05T17:29:34.578Z,64.40
2019-04-05T17:32:14.645Z,64.30
2019-04-05T17:34:54.743Z,65.40
2019-04-05T17:37:34.986Z,65.90
2019-04-05T17:40:15.042Z,66.00
2019-04-05T17:42:55.653Z,67.20
2019-04-05T17:45:35.661Z,68.30
2019-04-05T17:48:15.826Z,68.60
2019-04-05T17:50:56.216Z,67.80
2019-04-05T17:53:36.342Z,67.10
2019-04-05T17:56:16.329Z,67.70
2019-04-05T17:58:56.317Z,67.90
2019-04-05T18:01:38.661Z,68.80
2019-04-05T18:04:18.474Z,69.10
2019-04-05T18:06:58.982Z,69.30
2019-04-05T18:09:41.386Z,69.10
2019-04-05T18:12:21.163Z,69.10
2019-04-05T18:15:02.142Z,69.40
2019-04-05T18:17:42.525Z,70.20
2019-04-05T18:20:22.476Z,70.80
2019-04-05T18:23:02.650Z,70.90
2019-04-05T18:25:42.544Z,71.00
2019-04-05T18:28:22.813Z,70.60
2019-04-05T18:31:06.255Z,70.80
2019-04-05T18:33:46.646Z,70.80
2019-04-05T18:36:29.967Z,71.60
2019-04-05T18:39:11.994Z,72.40
2019-04-05T18:41:51.746Z,72.40
2019-04-05T18:44:33.237Z,72.60
2019-04-05T18:47:13.034Z,73.20
2019-04-05T18:50:02.944Z,73.60
2019-04-05T18:52:35.287Z,74.20
2019-04-05T18:55:15.488Z,74.80
2019-04-05T18:57:55.907Z,75.40
2019-04-05T19:00:43.426Z,75.70
2019-04-05T19:03:11.166Z,76.00
2019-04-05T19:05:58.421Z,76.70
2019-04-05T19:08:45.839Z,76.50
2019-04-05T19:11:32.817Z,76.70
2019-04-05T19:14:20.212Z,77.50
2019-04-05T19:17:03.059Z,77.60
2019-04-05T19:19:43.212Z,78.10
2019-04-05T19:22:30.613Z,78.40
2019-04-05T19:25:10.853Z,78.90
2019-04-05T19:27:52.538Z,78.90
2019-04-05T19:49:22.726Z,81.00
2019-04-05T19:52:10.696Z,80.60
2019-04-05T19:54:38.370Z,80.80
2019-04-05T19:57:25.381Z,81.10
2019-04-05T20:00:12.510Z,81.30
2019-04-05T20:03:00.817Z,81.80
2019-04-05T20:05:47.831Z,81.80
2019-04-05T20:08:27.950Z,82.30
2019-04-05T20:11:08.253Z,82.00
2019-04-05T20:13:48.262Z,82.30
2019-04-05T20:19:09.279Z,82.60
2019-04-05T20:21:56.314Z,83.00
2019-04-05T20:24:35.981Z,83.40
2019-04-05T20:27:16.245Z,83.90
2019-04-05T20:29:56.424Z,83.70
2019-04-05T20:32:36.305Z,83.90
2019-04-05T20:35:18.010Z,84.00
2019-04-05T20:37:57.883Z,84.10
2019-04-05T20:40:37.989Z,84.40
2019-04-05T20:43:17.961Z,84.40
2019-04-05T20:45:58.210Z,85.10
2019-04-05T20:48:38.348Z,85.20
2019-04-05T20:51:18.291Z,85.10
2019-04-05T20:53:58.573Z,85.70
2019-04-05T20:56:38.821Z,86.30
2019-04-05T20:59:18.773Z,86.70
2019-04-05T21:01:58.695Z,86.70
2019-04-05T21:04:39.598Z,87.60
2019-04-05T21:07:20.023Z,87.70
2019-04-05T21:10:00.421Z,88.00
2019-04-05T21:12:40.263Z,88.00
2019-04-05T21:15:20.329Z,88.40
2019-04-05T21:18:00.869Z,88.90
2019-04-05T21:20:40.761Z,89.00
2019-04-05T21:23:20.851Z,89.20
2019-04-05T21:26:00.748Z,89.10
2019-04-05T21:28:40.789Z,88.90
2019-04-05T21:31:21.023Z,88.70
2019-04-05T21:34:01.177Z,88.70
2019-04-05T21:36:41.448Z,88.80
2019-04-05T21:39:21.776Z,88.60
2019-04-05T21:42:01.934Z,88.60
2019-04-05T21:44:42.060Z,88.80
2019-04-05T21:47:22.252Z,88.40
2019-04-05T21:50:02.606Z,88.40
2019-04-05T21:52:42.261Z,88.60
2019-04-05T21:55:22.441Z,88.90
2019-04-05T21:58:02.609Z,89.00
2019-04-05T22:03:39.894Z,89.30
2019-04-05T22:06:20.983Z,89.50
2019-04-05T22:09:01.223Z,89.70
2019-04-05T22:11:41.353Z,89.80
2019-04-05T22:14:08.945Z,89.80
2019-04-05T22:16:36.657Z,89.80
2019-04-05T22:19:04.479Z,89.80
2019-04-05T22:21:32.671Z,89.60
2019-04-05T22:24:19.759Z,89.70
2019-04-05T22:27:06.784Z,89.90
2019-04-05T22:29:46.854Z,90.20
2019-04-05T22:32:26.942Z,90.10
2019-04-05T22:38:06.265Z,90.00
2019-04-05T22:40:34.064Z,90.20
2019-04-05T22:43:21.108Z,90.30
2019-04-05T22:46:01.623Z,90.40
2019-04-05T22:48:41.610Z,90.50
2019-04-05T22:51:21.726Z,90.70
2019-04-05T22:54:01.832Z,90.70
2019-04-05T22:56:41.697Z,90.70
2019-04-05T22:59:22.017Z,90.70
2019-04-05T23:02:02.222Z,90.90
2019-04-05T23:04:42.228Z,90.60
2019-04-05T23:07:22.311Z,90.80
2019-04-05T23:10:02.484Z,90.70
2019-04-05T23:12:42.766Z,90.80
2019-04-05T23:15:22.755Z,91.00
2019-04-05T23:18:02.841Z,91.10
2019-04-05T23:20:42.973Z,91.30
2019-04-05T23:23:22.902Z,91.20
2019-04-05T23:26:03.154Z,91.20
2019-04-05T23:28:43.232Z,91.30
2019-04-05T23:31:23.455Z,91.20
2019-04-05T23:34:03.466Z,91.30
2019-04-05T23:36:44.159Z,91.20
2019-04-05T23:39:22.405Z,91.20
2019-04-05T23:42:03.019Z,91.20
2019-04-05T23:44:42.777Z,91.10
2019-04-05T23:47:22.864Z,91.00
2019-04-05T23:50:03.626Z,91.10
2019-04-05T23:52:43.369Z,91.00
2019-04-05T23:55:11.431Z,91.00
2019-04-05T23:57:59.635Z,91.10
